createdAt,value
2023-05-02T00:02:18.072Z,100330.78
2023-05-02T00:04:46.825Z,100329.50
2023-05-02T00:07:15.024Z,100336.22
2023-05-02T00:09:43.484Z,100335.37
2023-05-02T00:12:11.977Z,100330.53
2023-05-02T00:14:40.259Z,100330.09
2023-05-02T00:17:08.471Z,100330.59
2023-05-02T00:19:40.599Z,100335.34
2023-05-02T00:22:08.660Z,100337.41
2023-05-02T00:24:37.152Z,100341.59
2023-05-02T00:27:06.323Z,100340.16
2023-05-02T00:29:34.407Z,100337.03
2023-05-02T00:32:02.831Z,100339.97
2023-05-02T00:34:31.631Z,100339.47
2023-05-02T00:37:01.039Z,100337.06
2023-05-02T00:39:29.398Z,100338.28
2023-05-02T00:41:58.745Z,100337.69
2023-05-02T00:44:27.019Z,100342.47
2023-05-02T00:46:55.899Z,100343.88
2023-05-02T00:49:24.806Z,100340.72
2023-05-02T00:51:54.567Z,100348.75
2023-05-02T00:54:24.257Z,100339.41
2023-05-02T00:56:52.388Z,100341.25
2023-05-02T00:59:20.813Z,100345.03
2023-05-02T01:01:57.411Z,100345.87
2023-05-02T01:04:34.483Z,100344.66
2023-05-02T01:07:16.478Z,100346.09
2023-05-02T01:09:55.246Z,100346.59
2023-05-02T01:12:29.326Z,100347.31
2023-05-02T01:14:59.656Z,100348.75
2023-05-02T01:17:32.787Z,100362.37
2023-05-02T01:20:04.701Z,100351.09
2023-05-02T01:22:34.919Z,100356.00
2023-05-02T01:25:15.775Z,100354.81
2023-05-02T01:27:52.620Z,100358.94
2023-05-02T01:30:24.179Z,100347.72
2023-05-02T01:32:55.071Z,100356.75
2023-05-02T01:35:25.260Z,100363.66
2023-05-02T01:37:56.840Z,100362.94
2023-05-02T01:40:26.473Z,100362.03
2023-05-02T01:42:56.068Z,100369.44
2023-05-02T01:45:27.732Z,100373.09
2023-05-02T01:47:56.389Z,100377.19
2023-05-02T01:50:28.989Z,100375.38
2023-05-02T01:53:01.309Z,100375.38
2023-05-02T01:55:30.120Z,100367.28
2023-05-02T01:57:58.834Z,100384.12
2023-05-02T02:00:31.848Z,100383.06
2023-05-02T02:03:01.854Z,100388.47
2023-05-02T02:05:30.929Z,100395.66
2023-05-02T02:07:59.523Z,100392.84
2023-05-02T02:10:31.576Z,100395.81
2023-05-02T02:13:07.466Z,100397.09
2023-05-02T02:15:39.532Z,100401.84
2023-05-02T02:18:14.485Z,100395.28
2023-05-02T02:20:46.024Z,100403.28
2023-05-02T02:23:16.097Z,100409.81
2023-05-02T02:25:46.329Z,100409.81
2023-05-02T02:28:17.095Z,100428.34
2023-05-02T02:30:46.842Z,100421.22
2023-05-02T02:33:15.244Z,100424.97
2023-05-02T02:35:49.395Z,100428.94
2023-05-02T02:38:28.114Z,100427.88
2023-05-02T02:41:01.359Z,100432.88
2023-05-02T02:43:37.436Z,100438.78
2023-05-02T02:46:18.181Z,100439.41
2023-05-02T02:48:56.642Z,100443.03
2023-05-02T02:51:39.761Z,100436.00
2023-05-02T02:54:25.780Z,100439.78
2023-05-02T02:57:02.798Z,100438.53
2023-05-02T02:59:35.500Z,100453.56
2023-05-02T03:02:09.527Z,100449.12
2023-05-02T03:04:40.382Z,100451.91
2023-05-02T03:07:08.755Z,100452.66
2023-05-02T03:09:43.586Z,100449.25
2023-05-02T03:12:12.901Z,100456.41
2023-05-02T03:14:42.121Z,100456.03
2023-05-02T03:17:11.662Z,100454.72
2023-05-02T03:19:40.077Z,100467.06
2023-05-02T03:22:08.176Z,100475.09
2023-05-02T03:24:36.566Z,100477.56
2023-05-02T03:27:06.323Z,100475.13
2023-05-02T03:29:34.832Z,100479.97
2023-05-02T03:32:03.157Z,100486.22
2023-05-02T03:34:33.241Z,100495.22
2023-05-02T03:37:02.047Z,100510.16
2023-05-02T03:39:30.628Z,100502.13
2023-05-02T03:41:59.125Z,100484.97
2023-05-02T03:44:27.701Z,100491.91
2023-05-02T03:46:56.165Z,100480.22
2023-05-02T03:49:24.794Z,100495.53
2023-05-02T03:51:54.423Z,100490.00
2023-05-02T03:54:24.033Z,100496.91
2023-05-02T03:56:52.301Z,100506.00
2023-05-02T03:59:20.674Z,100506.84
2023-05-02T04:01:51.300Z,100522.56
2023-05-02T04:04:20.352Z,100523.88
2023-05-02T04:06:48.644Z,100528.00
2023-05-02T04:09:19.120Z,100540.53
2023-05-02T04:11:48.004Z,100543.56
2023-05-02T04:14:16.176Z,100549.16
2023-05-02T04:16:49.165Z,100551.94
2023-05-02T04:19:19.564Z,100553.19
2023-05-02T04:21:47.809Z,100561.53
2023-05-02T04:24:16.181Z,100558.25
2023-05-02T04:26:47.575Z,100564.97
2023-05-02T04:29:15.936Z,100573.00
2023-05-02T04:31:45.633Z,100583.69
2023-05-02T04:34:13.904Z,100578.44
2023-05-02T04:36:42.405Z,100584.16
2023-05-02T04:39:11.243Z,100587.34
2023-05-02T04:41:40.069Z,100591.09
2023-05-02T04:44:09.529Z,100590.00
2023-05-02T04:46:38.196Z,100586.84
2023-05-02T04:49:06.446Z,100596.53
2023-05-02T04:51:34.590Z,100599.22
2023-05-02T04:54:03.085Z,100599.94
2023-05-02T04:56:31.532Z,100603.84
2023-05-02T04:58:59.621Z,100611.62
2023-05-02T05:01:29.985Z,100614.56
2023-05-02T05:03:58.461Z,100621.62
2023-05-02T05:06:26.856Z,100628.19
2023-05-02T05:08:56.000Z,100630.25
2023-05-02T05:11:24.525Z,100634.41
2023-05-02T05:13:52.551Z,100637.03
2023-05-02T05:16:21.357Z,100636.56
2023-05-02T05:18:53.061Z,100643.72
2023-05-02T05:21:21.480Z,100657.13
2023-05-02T05:23:50.070Z,100658.09
2023-05-02T05:26:18.973Z,100663.78
2023-05-02T05:28:47.450Z,100669.78
2023-05-02T05:31:16.984Z,100681.44
2023-05-02T05:33:46.562Z,100678.66
2023-05-02T05:36:16.410Z,100685.19
2023-05-02T05:38:44.688Z,100686.78
2023-05-02T05:41:12.975Z,100691.66
2023-05-02T05:43:41.763Z,100700.06
2023-05-02T05:46:10.181Z,100691.94
2023-05-02T05:48:38.879Z,100693.97
2023-05-02T05:51:07.840Z,100700.19
2023-05-02T05:53:37.585Z,100704.81
2023-05-02T05:56:15.525Z,100717.97
2023-05-02T05:58:44.752Z,100718.94
2023-05-02T06:01:13.039Z,100726.00
2023-05-02T06:03:41.855Z,100728.63
2023-05-02T06:06:10.142Z,100731.56
2023-05-02T06:08:39.637Z,100737.88
2023-05-02T06:11:10.668Z,100734.84
2023-05-02T06:13:39.260Z,100748.38
2023-05-02T06:16:08.847Z,100742.00
2023-05-02T06:18:37.057Z,100750.62
2023-05-02T06:21:05.995Z,100757.06
2023-05-02T06:23:34.664Z,100760.00
2023-05-02T06:26:05.419Z,100762.41
2023-05-02T06:28:33.514Z,100775.53
2023-05-02T06:31:03.621Z,100774.97
2023-05-02T06:33:32.757Z,100778.97
2023-05-02T06:36:01.835Z,100787.19
2023-05-02T06:38:30.922Z,100796.56
2023-05-02T06:40:58.850Z,100804.13
2023-05-02T06:43:28.373Z,100812.31
2023-05-02T06:45:57.656Z,100810.25
2023-05-02T06:48:25.948Z,100816.03
2023-05-02T06:50:54.382Z,100816.50
2023-05-02T06:53:22.950Z,100824.47
2023-05-02T06:55:51.510Z,100829.69
2023-05-02T06:58:19.697Z,100827.09
2023-05-02T07:00:50.519Z,100832.78
2023-05-02T07:03:18.661Z,100839.66
2023-05-02T07:05:46.666Z,100842.47
2023-05-02T07:08:14.997Z,100849.25
2023-05-02T07:10:43.018Z,100849.06
2023-05-02T07:13:11.201Z,100853.66
2023-05-02T07:15:39.588Z,100861.66
2023-05-02T07:18:09.075Z,100860.69
2023-05-02T07:20:38.879Z,100864.03
2023-05-02T07:23:07.298Z,100869.25
2023-05-02T07:25:36.731Z,100873.28
2023-05-02T07:28:05.426Z,100882.53
2023-05-02T07:30:34.005Z,100885.97
2023-05-02T07:33:02.228Z,100892.53
2023-05-02T07:35:31.697Z,100895.72
2023-05-02T07:38:00.195Z,100891.09
2023-05-02T07:40:28.820Z,100887.69
2023-05-02T07:42:57.009Z,100887.78
2023-05-02T07:45:25.377Z,100896.78
2023-05-02T07:47:53.592Z,100905.31
2023-05-02T07:50:22.621Z,100907.28
2023-05-02T07:52:52.515Z,100905.81
2023-05-02T07:55:21.552Z,100910.56
2023-05-02T07:57:49.857Z,100913.84
2023-05-02T08:00:18.847Z,100908.59
2023-05-02T08:02:47.436Z,100922.38
2023-05-02T08:05:16.189Z,100920.06
2023-05-02T08:07:44.375Z,100917.84
2023-05-02T08:10:14.368Z,100917.59
2023-05-02T08:12:43.276Z,100914.47
2023-05-02T08:15:14.141Z,100918.28
2023-05-02T08:17:42.700Z,100918.13
2023-05-02T08:20:11.358Z,100926.59
2023-05-02T08:22:39.340Z,100926.16
2023-05-02T08:25:08.005Z,100931.47
2023-05-02T08:27:37.987Z,100938.41
2023-05-02T08:30:07.721Z,100937.88
2023-05-02T08:32:37.772Z,100942.78
2023-05-02T08:35:06.827Z,100940.75
2023-05-02T08:37:34.933Z,100931.38
2023-05-02T08:40:03.721Z,100935.63
2023-05-02T08:42:34.802Z,100930.88
2023-05-02T08:45:06.236Z,100938.34
2023-05-02T08:47:35.203Z,100947.25
2023-05-02T08:50:05.434Z,100948.53
2023-05-02T08:52:34.009Z,100955.31
2023-05-02T08:55:04.362Z,100955.28
2023-05-02T08:57:32.774Z,100957.59
2023-05-02T09:00:00.993Z,100962.94
2023-05-02T09:02:46.064Z,100962.50
2023-05-02T09:05:20.945Z,100972.44
2023-05-02T09:07:50.378Z,100973.53
2023-05-02T09:10:19.125Z,100978.47
2023-05-02T09:12:47.373Z,100975.75
2023-05-02T09:15:20.557Z,100987.44
2023-05-02T09:17:50.464Z,100985.84
2023-05-02T09:20:19.073Z,100988.12
2023-05-02T09:22:52.000Z,100986.81
2023-05-02T09:25:21.264Z,100990.88
2023-05-02T09:27:54.117Z,100993.25
2023-05-02T09:30:25.432Z,100986.72
2023-05-02T09:32:56.051Z,100989.37
2023-05-02T09:35:24.844Z,100995.47
2023-05-02T09:37:53.981Z,100995.34
2023-05-02T09:40:23.331Z,100996.66
2023-05-02T09:42:52.143Z,101003.81
2023-05-02T09:45:21.858Z,100996.87
2023-05-02T09:47:50.451Z,100999.91
2023-05-02T09:50:37.124Z,101001.22
2023-05-02T09:53:06.940Z,101001.28
2023-05-02T09:55:35.642Z,100996.63
2023-05-02T09:58:04.132Z,100994.19
2023-05-02T10:00:43.425Z,101004.59
2023-05-02T10:03:12.634Z,101014.75
2023-05-02T10:05:43.258Z,101007.25
2023-05-02T10:08:13.141Z,101013.69
2023-05-02T10:10:44.906Z,101015.59
2023-05-02T10:13:14.592Z,101018.06
2023-05-02T10:15:45.799Z,101021.09
2023-05-02T10:18:16.706Z,101017.56
2023-05-02T10:20:56.592Z,101017.47
2023-05-02T10:23:27.366Z,101019.31
2023-05-02T10:25:58.106Z,101021.62
2023-05-02T10:28:28.450Z,101019.19
2023-05-02T10:30:57.122Z,101016.69
2023-05-02T10:33:26.349Z,101021.38
2023-05-02T10:35:56.230Z,101028.69
2023-05-02T10:38:25.029Z,101036.59
2023-05-02T10:40:57.195Z,101039.75
2023-05-02T10:43:27.980Z,101044.72
2023-05-02T10:45:56.371Z,101048.50
2023-05-02T10:48:26.735Z,101064.22
2023-05-02T10:50:58.100Z,101064.72
2023-05-02T10:53:28.314Z,101060.37
2023-05-02T10:56:28.497Z,101067.56
2023-05-02T10:59:30.515Z,101069.31
2023-05-02T11:01:59.326Z,101077.34
2023-05-02T11:04:27.669Z,101078.25
2023-05-02T11:07:19.893Z,101076.94
2023-05-02T11:09:48.583Z,101079.84
2023-05-02T11:12:47.667Z,101082.72
2023-05-02T11:15:16.925Z,101085.41
2023-05-02T11:18:01.341Z,101085.47
2023-05-02T11:20:31.434Z,101085.13
2023-05-02T11:23:26.056Z,101083.81
2023-05-02T11:25:56.955Z,101089.62
2023-05-02T11:28:43.557Z,101094.56
2023-05-02T11:32:05.216Z,101087.31
2023-05-02T11:34:45.027Z,101093.72
2023-05-02T11:37:15.164Z,101096.56
2023-05-02T11:39:45.809Z,101094.59
2023-05-02T11:42:29.627Z,101095.00
2023-05-02T11:44:59.203Z,101101.28
2023-05-02T11:47:29.654Z,101102.75
2023-05-02T11:49:59.885Z,101105.06
2023-05-02T11:52:28.317Z,101111.69
2023-05-02T11:54:58.228Z,101105.47
2023-05-02T11:57:26.396Z,101114.75
2023-05-02T11:59:55.938Z,101121.13
2023-05-02T12:02:37.206Z,101120.19
2023-05-02T12:05:07.286Z,101114.44
2023-05-02T12:07:36.977Z,101126.81
2023-05-02T12:10:08.017Z,101123.28
2023-05-02T12:12:36.709Z,101114.50
2023-05-02T12:15:05.819Z,101119.75
2023-05-02T12:17:36.110Z,101116.78
2023-05-02T12:20:05.962Z,101127.16
2023-05-02T12:22:35.177Z,101126.00
2023-05-02T12:25:04.714Z,101131.34
2023-05-02T12:27:35.342Z,101123.59
2023-05-02T12:30:04.389Z,101129.25
2023-05-02T12:32:34.316Z,101141.44
2023-05-02T12:35:04.013Z,101139.28
2023-05-02T12:37:33.815Z,101148.91
2023-05-02T12:40:02.284Z,101151.06
2023-05-02T12:42:34.505Z,101157.97
2023-05-02T12:45:04.836Z,101154.00
2023-05-02T12:47:46.589Z,101166.06
2023-05-02T12:52:05.548Z,101166.03
2023-05-02T12:54:33.951Z,101166.03
2023-05-02T12:57:03.069Z,101180.53
2023-05-02T12:59:33.276Z,101191.06
2023-05-02T13:02:01.661Z,101192.53
2023-05-02T13:04:36.687Z,101194.19
2023-05-02T13:07:06.482Z,101192.06
2023-05-02T13:09:34.707Z,101193.31
2023-05-02T13:12:03.941Z,101196.88
2023-05-02T13:14:32.385Z,101199.16
2023-05-02T13:17:02.260Z,101188.19
2023-05-02T13:19:31.513Z,101200.13
2023-05-02T13:22:00.133Z,101202.41
2023-05-02T13:24:29.672Z,101206.66
2023-05-02T13:26:57.876Z,101202.41
2023-05-02T13:29:26.256Z,101210.37
2023-05-02T13:31:54.827Z,101214.75
2023-05-02T13:34:26.285Z,101211.12
2023-05-02T13:36:54.675Z,101218.34
2023-05-02T13:39:22.759Z,101220.75
2023-05-02T13:41:52.147Z,101225.97
2023-05-02T13:44:20.428Z,101215.50
2023-05-02T13:46:48.496Z,101222.84
2023-05-02T13:49:16.791Z,101226.53
2023-05-02T13:51:45.122Z,101219.00
2023-05-02T13:54:13.134Z,101222.16
2023-05-02T13:56:41.221Z,101225.72
2023-05-02T13:59:11.372Z,101231.03
2023-05-02T14:01:42.808Z,101227.06
2023-05-02T14:04:11.578Z,101228.69
2023-05-02T14:06:39.912Z,101235.81
2023-05-02T14:09:08.374Z,101227.88
2023-05-02T14:11:36.865Z,101227.72
2023-05-02T14:14:05.367Z,101226.31
2023-05-02T14:16:36.134Z,101230.84
2023-05-02T14:19:04.648Z,101227.19
2023-05-02T14:21:33.027Z,101224.91
2023-05-02T14:24:01.325Z,101233.00
2023-05-02T14:26:29.570Z,101238.44
2023-05-02T14:28:58.526Z,101233.22
2023-05-02T14:31:26.598Z,101241.34
2023-05-02T14:33:56.777Z,101239.88
2023-05-02T14:36:24.898Z,101242.28
2023-05-02T14:38:53.085Z,101240.16
2023-05-02T14:41:22.269Z,101247.09
2023-05-02T14:43:50.357Z,101247.44
2023-05-02T14:46:18.452Z,101242.69
2023-05-02T14:48:46.924Z,101235.84
2023-05-02T14:51:16.648Z,101245.81
2023-05-02T14:53:45.253Z,101245.88
2023-05-02T14:56:15.804Z,101245.28
2023-05-02T14:58:43.919Z,101242.84
2023-05-02T15:01:19.265Z,101246.06
2023-05-02T15:04:05.248Z,101242.44
2023-05-02T15:06:37.095Z,101243.19
2023-05-02T15:09:06.010Z,101253.72
2023-05-02T15:11:34.192Z,101254.44
2023-05-02T15:14:02.722Z,101248.62
2023-05-02T15:16:31.746Z,101256.84
2023-05-02T15:19:02.662Z,101254.44
2023-05-02T15:21:32.065Z,101267.31
2023-05-02T15:24:03.969Z,101260.78
2023-05-02T15:26:32.600Z,101259.16
2023-05-02T15:29:01.313Z,101263.91
2023-05-02T15:31:29.791Z,101271.59
2023-05-02T15:33:58.355Z,101280.34
2023-05-02T15:36:28.842Z,101280.22
2023-05-02T15:38:56.929Z,101288.56
2023-05-02T15:41:27.436Z,101285.97
2023-05-02T15:43:55.654Z,101277.87
2023-05-02T15:46:23.820Z,101283.03
2023-05-02T15:48:52.766Z,101292.62
2023-05-02T15:51:20.926Z,101296.00
2023-05-02T15:53:52.445Z,101290.75
2023-05-02T15:56:21.796Z,101303.69
2023-05-02T15:58:51.105Z,101309.41
2023-05-02T16:01:21.102Z,101306.75
2023-05-02T16:03:49.683Z,101309.78
2023-05-02T16:06:18.087Z,101306.94
2023-05-02T16:08:47.583Z,101314.56
2023-05-02T16:11:15.970Z,101310.69
2023-05-02T16:13:44.038Z,101312.88
2023-05-02T16:16:13.581Z,101314.97
2023-05-02T16:18:42.551Z,101312.81
2023-05-02T16:21:13.402Z,101318.00
2023-05-02T16:23:41.986Z,101323.59
2023-05-02T16:26:10.291Z,101315.56
2023-05-02T16:28:38.555Z,101312.31
2023-05-02T16:31:07.979Z,101325.56
2023-05-02T16:33:37.718Z,101323.72
2023-05-02T16:36:06.348Z,101329.44
2023-05-02T16:38:36.328Z,101327.25
2023-05-02T16:41:06.887Z,101332.63
2023-05-02T16:43:35.805Z,101324.06
2023-05-02T16:46:06.052Z,101330.62
2023-05-02T16:48:35.341Z,101336.47
2023-05-02T16:51:05.349Z,101338.66
2023-05-02T16:53:33.483Z,101344.22
2023-05-02T16:56:01.615Z,101340.56
2023-05-02T16:58:30.428Z,101344.56
2023-05-02T17:01:00.658Z,101342.41
2023-05-02T17:03:31.342Z,101342.75
2023-05-02T17:06:01.251Z,101344.31
2023-05-02T17:08:30.820Z,101343.72
2023-05-02T17:10:59.009Z,101351.69
2023-05-02T17:13:27.423Z,101352.78
2023-05-02T17:15:55.886Z,101359.84
2023-05-02T17:18:24.135Z,101350.78
2023-05-02T17:20:52.869Z,101354.25
2023-05-02T17:23:21.139Z,101355.81
2023-05-02T17:25:51.256Z,101360.22
2023-05-02T17:28:20.140Z,101354.19
2023-05-02T17:30:54.621Z,101357.22
2023-05-02T17:33:23.448Z,101366.81
2023-05-02T17:35:51.631Z,101357.38
2023-05-02T17:38:20.433Z,101364.78
2023-05-02T17:40:50.398Z,101362.41
2023-05-02T17:43:21.210Z,101372.34
2023-05-02T17:45:50.090Z,101371.16
2023-05-02T17:48:19.005Z,101364.84
2023-05-02T17:50:50.143Z,101376.09
2023-05-02T17:53:18.482Z,101377.59
2023-05-02T17:55:46.673Z,101381.25
2023-05-02T17:58:16.183Z,101386.34
2023-05-02T18:00:44.746Z,101401.31
2023-05-02T18:03:13.306Z,101394.06
2023-05-02T18:05:44.092Z,101400.03
2023-05-02T18:08:12.592Z,101403.66
2023-05-02T18:10:42.100Z,101408.62
2023-05-02T18:13:10.534Z,101405.44
2023-05-02T18:15:40.348Z,101410.06
2023-05-02T18:18:08.548Z,101412.81
2023-05-02T18:20:39.635Z,101410.88
2023-05-02T18:23:08.040Z,101406.53
2023-05-02T18:25:36.423Z,101412.94
2023-05-02T18:28:04.619Z,101414.66
2023-05-02T18:30:36.630Z,101415.22
2023-05-02T18:33:06.727Z,101412.81
2023-05-02T18:35:35.650Z,101418.59
2023-05-02T18:38:06.496Z,101419.38
2023-05-02T18:40:34.885Z,101427.72
2023-05-02T18:43:03.158Z,101428.50
2023-05-02T18:45:31.246Z,101421.31
2023-05-02T18:47:59.790Z,101432.69
2023-05-02T18:50:29.568Z,101436.69
2023-05-02T18:52:57.764Z,101444.69
2023-05-02T18:55:26.249Z,101443.25
2023-05-02T18:57:54.389Z,101449.00
2023-05-02T19:00:23.443Z,101447.84
2023-05-02T19:02:53.444Z,101446.75
2023-05-02T19:05:21.633Z,101451.03
2023-05-02T19:07:51.239Z,101448.13
2023-05-02T19:10:20.024Z,101459.41
2023-05-02T19:12:48.272Z,101457.28
2023-05-02T19:15:16.623Z,101462.12
2023-05-02T19:17:45.405Z,101464.53
2023-05-02T19:20:13.746Z,101470.34
2023-05-02T19:22:42.995Z,101462.59
2023-05-02T19:25:13.116Z,101473.09
2023-05-02T19:27:42.165Z,101470.94
2023-05-02T19:30:13.562Z,101469.56
2023-05-02T19:32:42.472Z,101478.91
2023-05-02T19:35:11.608Z,101484.78
2023-05-02T19:37:39.829Z,101485.19
2023-05-02T19:40:10.957Z,101487.78
2023-05-02T19:42:41.518Z,101491.31
2023-05-02T19:45:13.797Z,101487.50
2023-05-02T19:47:43.908Z,101496.38
2023-05-02T19:50:13.090Z,101498.97
2023-05-02T19:52:42.875Z,101494.03
2023-05-02T19:55:11.526Z,101502.56
2023-05-02T19:57:44.183Z,101506.72
2023-05-02T20:00:14.172Z,101508.78
2023-05-02T20:02:42.746Z,101514.09
2023-05-02T20:05:11.466Z,101518.19
2023-05-02T20:07:39.563Z,101524.09
2023-05-02T20:10:09.194Z,101523.06
2023-05-02T20:12:37.683Z,101523.22
2023-05-02T20:15:10.710Z,101517.91
2023-05-02T20:17:39.130Z,101524.53
2023-05-02T20:20:08.439Z,101521.75
2023-05-02T20:22:36.562Z,101527.94
2023-05-02T20:25:05.584Z,101536.72
2023-05-02T20:27:34.280Z,101532.56
2023-05-02T20:30:02.735Z,101533.88
2023-05-02T20:32:33.038Z,101549.31
2023-05-02T20:35:01.328Z,101550.25
2023-05-02T20:37:30.779Z,101551.50
2023-05-02T20:39:59.600Z,101556.34
2023-05-02T20:42:28.019Z,101563.09
2023-05-02T20:44:58.276Z,101564.06
2023-05-02T20:47:28.428Z,101559.28
2023-05-02T20:49:58.934Z,101564.06
2023-05-02T20:52:27.296Z,101558.91
2023-05-02T20:54:56.325Z,101568.94
2023-05-02T20:57:24.416Z,101574.25
2023-05-02T20:59:52.795Z,101567.59
2023-05-02T21:02:21.582Z,101570.38
2023-05-02T21:04:49.666Z,101573.28
2023-05-02T21:07:19.516Z,101572.25
2023-05-02T21:09:47.881Z,101578.53
2023-05-02T21:12:16.128Z,101584.34
2023-05-02T21:14:44.387Z,101583.41
2023-05-02T21:17:12.633Z,101584.62
2023-05-02T21:19:40.817Z,101584.22
2023-05-02T21:22:09.131Z,101585.28
2023-05-02T21:24:38.723Z,101588.81
2023-05-02T21:27:06.770Z,101586.88
2023-05-02T21:29:35.114Z,101588.75
2023-05-02T21:32:03.887Z,101581.75
2023-05-02T21:34:32.128Z,101586.44
2023-05-02T21:37:01.009Z,101586.63
2023-05-02T21:39:29.080Z,101592.09
2023-05-02T21:41:58.496Z,101586.47
2023-05-02T21:44:26.877Z,101584.75
2023-05-02T21:46:54.943Z,101592.69
2023-05-02T21:49:23.045Z,101592.09
2023-05-02T21:51:51.473Z,101595.87
2023-05-02T21:54:19.932Z,101594.50
2023-05-02T21:56:50.874Z,101596.69
2023-05-02T21:59:20.951Z,101597.81
2023-05-02T22:01:49.075Z,101603.53
2023-05-02T22:04:18.027Z,101611.31
2023-05-02T22:06:51.417Z,101613.31
2023-05-02T22:09:20.754Z,101602.69
2023-05-02T22:11:48.922Z,101620.19
2023-05-02T22:14:16.958Z,101608.66
2023-05-02T22:16:47.309Z,101614.53
2023-05-02T22:19:15.562Z,101614.34
2023-05-02T22:21:43.508Z,101618.84
2023-05-02T22:24:12.022Z,101621.78
2023-05-02T22:26:40.063Z,101618.62
2023-05-02T22:29:08.060Z,101619.63
2023-05-02T22:31:37.086Z,101625.78
2023-05-02T22:34:06.465Z,101627.47
2023-05-02T22:36:35.567Z,101620.88
2023-05-02T22:39:04.479Z,101621.41
2023-05-02T22:41:32.486Z,101615.16
2023-05-02T22:44:00.559Z,101625.50
2023-05-02T22:46:29.003Z,101620.59
2023-05-02T22:48:57.889Z,101625.03
2023-05-02T22:51:28.417Z,101626.06
2023-05-02T22:53:57.390Z,101628.72
2023-05-02T22:56:25.677Z,101637.81
2023-05-02T22:58:53.713Z,101629.03
2023-05-02T23:01:22.099Z,101632.16
2023-05-02T23:03:50.428Z,101628.47
2023-05-02T23:06:18.621Z,101629.78
2023-05-02T23:08:48.597Z,101635.22
2023-05-02T23:11:16.789Z,101634.63
2023-05-02T23:13:44.825Z,101635.34
2023-05-02T23:16:13.140Z,101632.84
2023-05-02T23:18:41.129Z,101639.38
2023-05-02T23:21:15.744Z,101643.59
2023-05-02T23:23:44.462Z,101636.09
2023-05-02T23:26:13.872Z,101636.31
2023-05-02T23:28:42.362Z,101642.50
2023-05-02T23:31:11.062Z,101642.34
2023-05-02T23:33:39.217Z,101638.03
2023-05-02T23:36:08.465Z,101644.22
2023-05-02T23:38:36.924Z,101645.16
2023-05-02T23:41:05.048Z,101640.84
2023-05-02T23:43:34.434Z,101640.78
2023-05-02T23:46:03.660Z,101639.91
2023-05-02T23:48:31.743Z,101648.09
2023-05-02T23:50:59.761Z,101643.19
2023-05-02T23:53:30.155Z,101647.06
2023-05-02T23:55:58.655Z,101646.59
2023-05-02T23:58:26.720Z,101642.59
